• Join FlightAware (Why Join?)
  • Login
  • US Flag 
11:54AM EST


 

Airport Tracker/Info


-or-


 

Live Flight TrackerFlight Track Log ✈ EGF3292 ✈ 24-Aug-2013 ✈ MMTC / TRC - KDFW

Flight Track Log - Related Links

Times and Time Zones

All times are in EDT time to prevent confusion due to time zone crossing. See the EGF3292 flight status page for this flight to view local times or setup timezone preferences in your user account.

Time Position Orientation Groundspeed Altitude Reporting Facility
EDT Latitude Longitude Course Direction KTS MPH feet Rate Location/Type
07:44AM 25.7298 -103.1711 48° Northeast  Level FlightAware Approximate
07:45AM 25.7873 -103.0912 52° Northeast  Level FlightAware Approximate
07:46AM 25.8434 -103.0100 53° Northeast  Level FlightAware Approximate
07:47AM 25.8982 -102.9277 53° Northeast  Level FlightAware Approximate
07:48AM 25.9547 -102.8468 51° Northeast  Level FlightAware Approximate
07:49AM 26.0121 -102.7666 51° Northeast  Level FlightAware Approximate
07:50AM 26.0694 -102.6863 52° Northeast  Level FlightAware Approximate
07:51AM 26.1297 -102.6088 48° Northeast  Level FlightAware Approximate
07:52AM 26.1910 -102.5321 48° Northeast  Level FlightAware Approximate
07:53AM 26.2496 -102.4530 52° Northeast  Level FlightAware Approximate
07:54AM 26.3063 -102.3720 52° Northeast  Level FlightAware Approximate
07:55AM 26.3613 -102.2895 55° Northeast  Level FlightAware Approximate
07:56AM 26.4146 -102.2057 55° Northeast  Level FlightAware Approximate
07:57AM 26.4783 -102.1358 24° Northeast  Level FlightAware Approximate
07:58AM 26.5364 -102.0568 52° Northeast  Level FlightAware Approximate
07:59AM 26.5928 -101.9754 52° Northeast  Level FlightAware Approximate
08:00AM 26.6499 -101.8945 50° Northeast  Level FlightAware Approximate
08:01AM 26.7074 -101.8140 53° Northeast  Level FlightAware Approximate
08:02AM 26.7625 -101.7313 53° Northeast  Level FlightAware Approximate
08:03AM 26.8192 -101.6500 51° Northeast  Level FlightAware Approximate
08:04AM 26.8768 -101.5694 51° Northeast  Level FlightAware Approximate
08:05AM 26.9343 -101.4887 51° Northeast  Level FlightAware Approximate
08:06AM 26.9977 -101.4262 24° Northeast  Level FlightAware Approximate
08:07AM 27.0818 -101.3842 24° Northeast  Level FlightAware Approximate
08:08AM 27.1660 -101.3421 24° Northeast  Level FlightAware Approximate
08:09AM 27.2501 -101.2999 26° Northeast  Level FlightAware Approximate
08:10AM 27.3328 -101.2542 26° Northeast  Level FlightAware Approximate
08:11AM 27.4155 -101.2083 26° Northeast  Level FlightAware Approximate
08:12AM 27.4981 -101.1624 26° Northeast  Level FlightAware Approximate
08:13AM 27.5807 -101.1165 26° Northeast  Level FlightAware Approximate
08:14AM 27.6633 -101.0704 26° Northeast  Level FlightAware Approximate
08:15AM 27.7459 -101.0243 26° Northeast  Level FlightAware Approximate
08:16AM 27.8285 -100.9781 26° Northeast  Level FlightAware Approximate
08:16AM 28.0475 -101.0344 26° Northeast 424 488 37,000  Level Houston Center
08:17AM 27.9111 -100.9319 26° Northeast  Level FlightAware Approximate
08:17AM 28.1444 -100.9550 36° Northeast 428 493 37,000  Level Houston Center
08:18AM 27.9936 -100.8856 26° Northeast  Level FlightAware Approximate
08:18AM 28.2575 -100.8575 37° Northeast 428 493 37,000  Level Houston Center
08:19AM 28.0761 -100.8392 26° Northeast  Level FlightAware Approximate
08:19AM 28.3417 -100.7875 36° Northeast 431 496 37,000  Level Houston Center
08:20AM 28.1587 -100.7927 26° Northeast  Level FlightAware Approximate
08:20AM 28.4372 -100.7047 37° Northeast 432 497 37,000  Level Houston Center
08:21AM 28.2412 -100.7462 26° Northeast  Level FlightAware Approximate
08:21AM 28.5311 -100.6219 38° Northeast 430 495 37,000  Level Houston Center
08:22AM 28.6472 -100.5292 35° Northeast 426 490 37,000  Level Houston Center
08:23AM 28.7464 -100.4547 33° Northeast 429 494 37,000  Level Houston Center
08:24AM 28.8414 -100.3781 35° Northeast 421 484 37,000  Level Houston Center
08:25AM 28.9389 -100.3019 34° Northeast 424 488 37,000  Level Houston Center
08:26AM 29.0356 -100.2247 35° Northeast 425 489 37,000  Level Houston Center
08:27AM 29.1311 -100.1481 35° Northeast 421 484 37,000  Level Houston Center
08:28AM 29.2286 -100.0697 35° Northeast 430 495 37,000  Level Houston Center
08:29AM 29.3236 -99.9950 34° Northeast 421 484 37,000  Level Houston Center
08:30AM 29.4181 -99.9200 35° Northeast 415 478 37,000  Level Houston Center
08:31AM 29.5119 -99.8444 35° Northeast 415 478 37,000  Level Houston Center
08:33AM 29.6233 -99.7547 35° Northeast 411 473 37,000  Level Houston Center
08:34AM 29.7161 -99.6806 35° Northeast 410 472 37,000  Level Houston Center
08:35AM 29.8097 -99.6042 35° Northeast 413 475 37,000  Level Houston Center
08:36AM 29.9036 -99.5275 35° Northeast 414 476 37,000  Level Houston Center
08:37AM 29.9964 -99.4525 35° Northeast 412 474 37,000  Level Houston Center
08:38AM 30.0900 -99.3767 35° Northeast 412 474 37,000  Level Houston Center
08:39AM 30.1839 -99.3006 35° Northeast 413 475 37,000  Level Houston Center
08:40AM 30.2794 -99.2244 35° Northeast 418 481 37,000  Level Houston Center
08:41AM 30.3750 -99.1467 35° Northeast 420 483 37,000  Level Houston Center
08:42AM 30.4739 -99.0656 35° Northeast 417 480 37,000  Level Houston Center
08:43AM 30.5706 -98.9858 35° Northeast 420 483 37,000  Level Houston Center
08:44AM 30.6850 -98.8917 35° Northeast 426 490 37,000  Level Houston Center
08:45AM 30.7822 -98.8117 35° Northeast 424 488 37,000  Level Houston Center
08:46AM 30.8781 -98.7314 36° Northeast 420 483 37,000  Level Houston Center
08:47AM 30.9739 -98.6528 35° Northeast 418 481 37,000  Level Houston Center
08:48AM 31.0692 -98.5731 36° Northeast 416 479 37,000  Level Houston Center
08:49AM 31.1631 -98.4944 36° Northeast 412 474 37,000  Level Houston Center
08:50AM 31.2589 -98.4153 35° Northeast 415 478 37,000  Level Houston Center
08:51AM 31.3569 -98.3406 33° Northeast 415 478 37,000 -420 Level Houston Center
08:52AM 31.4556 -98.2683 32° Northeast 414 476 36,200 -1,680 Descending Houston Center
08:53AM 31.5583 -98.1922 32° Northeast 425 489 33,700 -2,460 Descending Houston Center
08:54AM 31.6650 -98.1133 32° Northeast 442 509 31,200 -2,640 Descending Houston Center
08:55AM 31.7725 -98.0375 31° Northeast 445 512 28,400 -2,640 Descending Houston Center
08:56AM 31.8822 -97.9542 33° Northeast 448 516 25,700 -2,760 Descending Fort Worth Center
08:57AM 31.9933 -97.8667 34° Northeast 448 516 22,700 -3,000 Descending Fort Worth Center
08:58AM 32.0939 -97.7886 33° Northeast 434 499 19,700 -2,700 Descending Fort Worth Center
08:59AM 32.1919 -97.7178 31° Northeast 427 491 17,400 -2,580 Descending Fort Worth Center
09:00AM 32.2883 -97.6469 32° Northeast 404 465 14,600 -2,580 Descending Fort Worth Center
09:01AM 32.3678 -97.5856 33° Northeast 390 449 12,300 -1,800 Descending Fort Worth Center
09:02AM 32.4556 -97.5192 33° Northeast 358 412 11,000 -660 Descending Fort Worth Center
09:03AM 32.5097 -97.4603 43° Northeast 301 346 11,000  Level Fort Worth Center
09:04AM 32.5703 -97.3864 46° Northeast 274 315 11,000  Level Fort Worth Center
09:05AM 32.6203 -97.3272 45° Northeast 274 315 11,000  Level Fort Worth Center
09:06AM 32.6667 -97.2833 39° Northeast 287 330 11,000  Level Dallas / Fort Worth TRACON
09:07AM 32.7167 -97.2167 48° Northeast 255 293 11,000  Level Dallas / Fort Worth TRACON
09:08AM 32.7667 -97.1667 40° Northeast 248 285 11,000 -600 Level Dallas / Fort Worth TRACON
09:09AM 32.8333 -97.1667 360° North 244 281 9,800 -1,500 Descending Dallas / Fort Worth TRACON
09:10AM 32.9000 -97.1667 360° North 230 265 8,000 -1,800 Descending Dallas / Fort Worth TRACON
09:11AM 32.9667 -97.1667 360° North 234 269 6,200 -1,500 Descending Dallas / Fort Worth TRACON
09:12AM 33.0167 -97.1500 16° North 234 269 5,000 -1,140 Descending Dallas / Fort Worth TRACON
09:13AM 33.0667 -97.1167 29° Northeast 225 259 4,000 -1,200 Descending Dallas / Fort Worth TRACON
09:14AM 33.0333 -97.0667 128° Southeast 213 245 2,600 -1,020 Descending Dallas / Fort Worth TRACON
09:15AM 32.9833 -97.0500 164° South 158 182 2,000 -600 Descending Dallas / Fort Worth TRACON